createdAt,value
2024-04-15T00:04:35.322Z,86.33
2024-04-15T00:10:00.408Z,86.89
2024-04-15T00:15:25.627Z,86.01
2024-04-15T00:21:00.415Z,84.43
2024-04-15T00:26:25.647Z,82.48
2024-04-15T00:31:50.407Z,86.62
2024-04-15T00:37:18.698Z,87.17
2024-04-15T00:42:44.221Z,88.45
2024-04-15T00:48:11.211Z,86.92
2024-04-15T00:53:39.323Z,85.76
2024-04-15T00:59:04.918Z,83.20
2024-04-15T01:04:29.900Z,79.42
2024-04-15T01:09:57.412Z,79.02
2024-04-15T01:15:22.380Z,75.64
2024-04-15T01:20:47.650Z,73.85
2024-04-15T01:26:14.942Z,74.04
2024-04-15T01:31:39.647Z,81.87
2024-04-15T01:37:04.794Z,88.04
2024-04-15T01:42:32.008Z,91.78
2024-04-15T01:47:57.445Z,93.77
2024-04-15T01:53:22.401Z,99.23
2024-04-15T01:58:49.937Z,100.00
2024-04-15T02:04:15.030Z,100.00
2024-04-15T02:09:40.380Z,100.00
2024-04-15T02:15:08.258Z,100.00
2024-04-15T02:20:38.091Z,100.00
2024-04-15T02:26:02.594Z,93.04
2024-04-15T02:31:29.823Z,88.93
2024-04-15T02:36:54.625Z,84.67
2024-04-15T02:42:19.288Z,81.13
2024-04-15T02:47:46.597Z,82.53
2024-04-15T02:53:12.759Z,88.73
2024-04-15T02:58:37.511Z,88.09
2024-04-15T03:04:05.851Z,85.84
2024-04-15T03:09:30.921Z,86.14
2024-04-15T03:14:55.708Z,85.69
2024-04-15T03:20:23.918Z,84.93
2024-04-15T03:25:49.197Z,78.00
2024-04-15T03:31:14.340Z,79.03
2024-04-15T03:36:41.971Z,80.33
2024-04-15T03:42:07.493Z,82.74
2024-04-15T03:47:42.814Z,81.67
2024-04-15T03:53:10.918Z,81.31
2024-04-15T03:58:35.574Z,80.85
2024-04-15T04:04:00.493Z,82.20
2024-04-15T04:09:28.107Z,82.45
2024-04-15T04:14:53.093Z,81.09
2024-04-15T04:20:18.217Z,80.60
2024-04-15T04:25:45.662Z,78.17
2024-04-15T04:31:10.487Z,78.55
2024-04-15T04:36:35.017Z,82.36
2024-04-15T04:42:02.113Z,82.92
2024-04-15T04:47:27.487Z,82.34
2024-04-15T04:52:51.759Z,85.51
2024-04-15T04:58:19.390Z,85.74
2024-04-15T05:03:47.573Z,85.11
2024-04-15T05:09:12.340Z,82.79
2024-04-15T05:14:39.973Z,79.21
2024-04-15T05:20:04.997Z,79.27
2024-04-15T05:25:29.888Z,76.32
2024-04-15T05:30:58.821Z,75.57
2024-04-15T05:36:23.872Z,74.38
2024-04-15T05:41:48.829Z,70.53
2024-04-15T05:47:17.132Z,70.11
2024-04-15T05:52:41.458Z,69.11
2024-04-15T05:58:06.642Z,63.49
2024-04-15T06:03:34.470Z,61.33
2024-04-15T06:08:59.264Z,60.35
2024-04-15T06:14:23.974Z,60.63
2024-04-15T06:19:51.351Z,60.78
2024-04-15T06:25:16.501Z,60.70
2024-04-15T06:30:41.480Z,58.02
2024-04-15T06:36:09.508Z,53.74
2024-04-15T06:41:34.623Z,48.05
2024-04-15T06:46:59.876Z,43.50
2024-04-15T06:52:27.679Z,43.62
2024-04-15T06:57:53.097Z,40.15
2024-04-15T07:03:17.869Z,38.58
2024-04-15T07:08:45.595Z,36.46
2024-04-15T07:14:10.516Z,34.70
2024-04-15T07:19:35.225Z,33.76
2024-04-15T07:25:04.265Z,31.56
2024-04-15T07:30:29.062Z,31.14
2024-04-15T07:35:57.087Z,32.52
2024-04-15T07:41:24.555Z,31.84
2024-04-15T07:46:50.865Z,31.53
2024-04-15T07:52:16.235Z,30.26
2024-04-15T07:57:43.515Z,29.30
2024-04-15T08:03:08.262Z,29.09
2024-04-15T08:08:33.160Z,29.33
2024-04-15T08:14:00.632Z,30.03
2024-04-15T08:19:27.314Z,30.22
2024-04-15T08:24:53.763Z,30.32
2024-04-15T08:30:25.485Z,29.77
2024-04-15T08:35:53.265Z,28.14
2024-04-15T08:41:25.570Z,30.72
2024-04-15T08:46:56.085Z,30.08
2024-04-15T08:52:21.456Z,28.75
2024-04-15T08:57:49.786Z,29.69
2024-04-15T09:03:18.351Z,28.72
2024-04-15T09:08:50.289Z,28.38
2024-04-15T09:14:16.820Z,27.97
2024-04-15T09:19:48.694Z,28.23
2024-04-15T09:25:14.821Z,28.03
2024-04-15T09:30:40.203Z,28.05
2024-04-15T09:36:08.578Z,28.29
2024-04-15T09:41:36.370Z,29.08
2024-04-15T09:47:02.910Z,28.57
2024-04-15T09:52:36.345Z,29.19
2024-04-15T09:58:02.155Z,29.73
2024-04-15T10:03:31.827Z,29.76
2024-04-15T10:09:00.954Z,29.29
2024-04-15T10:14:26.382Z,28.47
2024-04-15T10:19:51.588Z,29.72
2024-04-15T10:25:19.431Z,31.70
2024-04-15T10:30:44.542Z,30.63
2024-04-15T10:36:13.796Z,30.44
2024-04-15T10:41:50.561Z,30.46
2024-04-15T10:47:15.527Z,29.81
2024-04-15T10:52:40.525Z,30.42
2024-04-15T10:58:13.279Z,30.48
2024-04-15T11:03:38.876Z,32.12
2024-04-15T11:09:04.467Z,32.35
2024-04-15T11:14:32.267Z,31.52
2024-04-15T11:20:03.998Z,33.41
2024-04-15T11:25:28.822Z,34.88
2024-04-15T11:30:57.721Z,33.51
2024-04-15T11:36:22.783Z,31.80
2024-04-15T11:41:47.873Z,32.48
2024-04-15T11:47:19.160Z,33.40
2024-04-15T11:52:44.539Z,35.03
2024-04-15T11:58:11.190Z,34.73
2024-04-15T12:03:39.107Z,34.97
2024-04-15T12:09:05.259Z,35.52
2024-04-15T12:14:30.372Z,34.92
2024-04-15T12:19:58.203Z,35.47
2024-04-15T12:25:23.134Z,36.85
2024-04-15T12:30:48.678Z,36.20
2024-04-15T12:36:16.190Z,35.75
2024-04-15T12:41:41.283Z,35.96
2024-04-15T12:47:06.276Z,35.80
2024-04-15T12:52:34.152Z,35.16
2024-04-15T12:58:04.501Z,34.62
2024-04-15T13:03:29.845Z,34.30
2024-04-15T13:08:57.627Z,34.49
2024-04-15T13:14:22.856Z,33.80
2024-04-15T13:19:47.737Z,35.11
2024-04-15T13:25:15.284Z,35.91
2024-04-15T13:30:40.302Z,36.57
2024-04-15T13:36:06.593Z,36.97
2024-04-15T13:41:34.890Z,37.45
2024-04-15T13:47:00.039Z,37.00
2024-04-15T13:52:25.252Z,36.88
2024-04-15T13:57:53.308Z,36.58
2024-04-15T14:03:18.150Z,37.06
2024-04-15T14:08:43.304Z,37.22
2024-04-15T14:14:12.846Z,37.16
2024-04-15T14:19:37.535Z,36.92
2024-04-15T14:25:02.612Z,37.25
2024-04-15T14:30:30.054Z,37.26
2024-04-15T14:35:55.180Z,37.25
2024-04-15T14:41:20.493Z,38.07
2024-04-15T14:46:50.865Z,38.16
2024-04-15T14:52:22.235Z,37.72
2024-04-15T14:57:47.735Z,41.62
2024-04-15T15:03:15.584Z,42.73
2024-04-15T15:08:44.296Z,43.81
2024-04-15T15:14:09.072Z,44.35
2024-04-15T15:19:37.246Z,40.12
2024-04-15T15:25:02.373Z,39.97
2024-04-15T15:30:30.694Z,39.23
2024-04-15T15:35:58.434Z,38.88
2024-04-15T15:41:23.306Z,38.48
2024-04-15T15:46:48.094Z,38.95
2024-04-15T15:52:15.750Z,39.22
2024-04-15T15:57:41.648Z,39.46
2024-04-15T16:03:07.214Z,39.93
2024-04-15T16:08:35.077Z,39.80
2024-04-15T16:13:59.962Z,42.70
2024-04-15T16:19:31.392Z,53.34
2024-04-15T16:25:00.645Z,82.89
2024-04-15T16:30:25.900Z,100.00
2024-04-15T16:35:51.015Z,100.00
2024-04-15T16:41:18.653Z,100.00
2024-04-15T16:46:44.874Z,100.00
2024-04-15T16:52:09.231Z,100.00
2024-04-15T16:57:37.307Z,100.00
2024-04-15T17:03:02.181Z,100.00
2024-04-15T17:08:27.462Z,100.00
2024-04-15T17:13:55.363Z,100.00
2024-04-15T17:19:20.478Z,100.00
2024-04-15T17:24:45.281Z,100.00
2024-04-15T17:30:13.342Z,100.00
2024-04-15T17:35:39.954Z,100.00
2024-04-15T17:41:05.803Z,100.00
2024-04-15T17:46:33.983Z,100.00
2024-04-15T17:51:58.995Z,100.00
2024-04-15T17:57:23.929Z,100.00
2024-04-15T18:02:51.724Z,100.00
2024-04-15T18:08:16.691Z,100.00
2024-04-15T18:13:41.536Z,100.00
2024-04-15T18:19:10.195Z,100.00
2024-04-15T18:24:35.231Z,100.00
2024-04-15T18:29:59.838Z,100.00
2024-04-15T18:35:27.990Z,100.00
2024-04-15T18:40:53.082Z,100.00
2024-04-15T18:46:18.673Z,100.00
2024-04-15T18:51:46.012Z,100.00
2024-04-15T18:57:14.027Z,100.00
2024-04-15T19:02:38.905Z,100.00
2024-04-15T19:08:06.535Z,100.00
2024-04-15T19:13:31.178Z,100.00
2024-04-15T19:18:57.933Z,100.00
2024-04-15T19:24:26.505Z,100.00
2024-04-15T19:29:52.049Z,100.00
2024-04-15T19:35:17.296Z,100.00
2024-04-15T19:40:44.713Z,100.00
2024-04-15T19:46:11.648Z,100.00
2024-04-15T19:51:38.747Z,100.00
2024-04-15T19:57:07.953Z,100.00
2024-04-15T20:02:32.716Z,100.00
2024-04-15T20:08:05.648Z,100.00
2024-04-15T20:13:37.367Z,100.00
2024-04-15T20:19:07.300Z,100.00
2024-04-15T20:24:32.491Z,100.00
2024-04-15T20:30:01.426Z,100.00
2024-04-15T20:35:26.714Z,100.00
2024-04-15T20:40:51.899Z,100.00
2024-04-15T20:46:19.110Z,100.00
2024-04-15T20:51:44.068Z,100.00
2024-04-15T20:57:08.920Z,100.00
2024-04-15T21:02:36.430Z,100.00
2024-04-15T21:08:01.260Z,100.00
2024-04-15T21:13:26.051Z,100.00
2024-04-15T21:18:53.191Z,100.00
2024-04-15T21:24:18.126Z,100.00
2024-04-15T21:29:43.278Z,100.00
2024-04-15T21:35:10.915Z,100.00
2024-04-15T21:40:36.500Z,100.00
2024-04-15T21:46:01.499Z,100.00
2024-04-15T21:51:31.078Z,100.00
2024-04-15T21:57:02.511Z,100.00
2024-04-15T22:02:27.442Z,100.00
2024-04-15T22:08:00.517Z,100.00
2024-04-15T22:13:28.310Z,100.00
2024-04-15T22:18:54.017Z,100.00
2024-04-15T22:24:22.386Z,100.00
2024-04-15T22:29:47.646Z,100.00
2024-04-15T22:35:12.296Z,100.00
2024-04-15T22:40:40.051Z,100.00
2024-04-15T22:46:06.083Z,100.00
2024-04-15T22:51:30.178Z,100.00
2024-04-15T22:56:57.472Z,100.00
2024-04-15T23:02:22.219Z,100.00
2024-04-15T23:07:46.821Z,100.00
2024-04-15T23:13:14.420Z,100.00
2024-04-15T23:18:38.998Z,100.00
2024-04-15T23:24:03.811Z,100.00
2024-04-15T23:29:31.139Z,100.00
2024-04-15T23:34:56.027Z,100.00
2024-04-15T23:40:20.832Z,100.00
2024-04-15T23:45:55.212Z,100.00
2024-04-15T23:51:38.691Z,100.00
2024-04-15T23:57:23.133Z,100.00
